Time;durP1;ratioP1;P1;durP2;ratioP2;P2;SDS_P1;SDS_P2;PMS_P1;PMS_P2;Temp;Humidity;BMP_temperature;BMP_pressure;BME280_temperature;BME280_humidity;BME280_pressure;Samples;Min_cycle;Max_cycle;Signal;HPM_P1;HPM_P2
2023/11/01 00:00:41;;;;;;;10.00;1.60;;;;;;;;;;5014331;28;20018;-88
2023/11/01 00:03:06;;;;;;;9.98;1.42;;;;;;;;;;5014896;28;20022;-88
2023/11/01 00:05:31;;;;;;;13.70;2.28;;;;;;;;;;5015143;28;20093;-88
2023/11/01 00:07:57;;;;;;;14.05;2.40;;;;;;;;;;5015461;28;20014;-88
2023/11/01 00:10:22;;;;;;;12.90;2.35;;;;;;;;;;5015209;28;20400;-88
2023/11/01 00:12:47;;;;;;;11.70;2.93;;;;;;;;;;5014627;28;20431;-88
2023/11/01 00:15:12;;;;;;;8.57;2.53;;;;;;;;;;5014214;28;20309;-88
2023/11/01 00:17:38;;;;;;;18.90;2.40;;;;;;;;;;5014976;28;20251;-88
2023/11/01 00:20:04;;;;;;;15.90;2.58;;;;;;;;;;5015011;28;20334;-88
2023/11/01 00:22:30;;;;;;;12.10;3.05;;;;;;;;;;5014595;28;20030;-88
2023/11/01 00:24:55;;;;;;;18.77;2.60;;;;;;;;;;5014819;28;20029;-88
2023/11/01 00:27:20;;;;;;;17.65;3.60;;;;;;;;;;5014977;28;20030;-88
2023/11/01 00:29:45;;;;;;;15.17;3.33;;;;;;;;;;5013773;28;20030;-89
2023/11/01 00:32:11;;;;;;;16.50;3.75;;;;;;;;;;5014484;28;20267;-88
2023/11/01 00:34:36;;;;;;;10.45;2.30;;;;;;;;;;5014559;28;20030;-89
2023/11/01 00:37:01;;;;;;;23.20;3.60;;;;;;;;;;5014806;28;20022;-89
2023/11/01 00:39:26;;;;;;;16.23;3.37;;;;;;;;;;5014654;28;20247;-88
2023/11/01 00:41:51;;;;;;;26.77;3.53;;;;;;;;;;5014077;28;20287;-88
2023/11/01 00:44:17;;;;;;;27.23;3.33;;;;;;;;;;5013326;28;20275;-90
2023/11/01 00:46:42;;;;;;;21.00;3.17;;;;;;;;;;5013156;28;20263;-88
2023/11/01 00:49:07;;;;;;;26.52;3.05;;;;;;;;;;5014378;28;20258;-87
2023/11/01 00:51:33;;;;;;;27.35;3.88;;;;;;;;;;5014430;28;20021;-88
2023/11/01 00:53:58;;;;;;;34.67;4.13;;;;;;;;;;5013744;28;20487;-88
2023/11/01 00:56:23;;;;;;;28.95;3.58;;;;;;;;;;5014180;28;20357;-88
2023/11/01 00:58:49;;;;;;;28.02;3.58;;;;;;;;;;5013422;28;20072;-88
2023/11/01 01:01:14;;;;;;;37.50;4.47;;;;;;;;;;5013754;28;20079;-89
2023/11/01 01:03:39;;;;;;;25.90;5.67;;;;;;;;;;5014078;28;20267;-89
2023/11/01 01:06:05;;;;;;;48.37;4.53;;;;;;;;;;5012702;28;20264;-89
2023/11/01 01:08:30;;;;;;;34.15;4.20;;;;;;;;;;5012754;28;20298;-89
2023/11/01 01:10:55;;;;;;;40.88;5.45;;;;;;;;;;5012861;28;20457;-89
2023/11/01 01:13:20;;;;;;;29.10;3.83;;;;;;;;;;5012980;28;20022;-89
2023/11/01 01:15:45;;;;;;;29.17;3.70;;;;;;;;;;5013576;28;20294;-88
2023/11/01 01:18:14;;;;;;;22.58;2.80;;;;;;;;;;5013601;28;20248;-89
2023/11/01 01:20:39;;;;;;;33.75;4.63;;;;;;;;;;5013849;28;20442;-89
2023/11/01 01:23:05;;;;;;;29.60;4.28;;;;;;;;;;5013432;28;20018;-89
2023/11/01 01:25:30;;;;;;;21.23;3.00;;;;;;;;;;5013724;28;20026;-89
2023/11/01 01:27:55;;;;;;;24.67;4.33;;;;;;;;;;5011659;28;20587;-89
2023/11/01 01:30:20;;;;;;;26.40;3.50;;;;;;;;;;5012338;28;20757;-88
2023/11/01 01:32:45;;;;;;;26.92;3.13;;;;;;;;;;5013492;28;20263;-90
2023/11/01 01:35:12;;;;;;;29.83;3.30;;;;;;;;;;5013639;28;20022;-88
2023/11/01 01:37:38;;;;;;;36.20;6.75;;;;;;;;;;5013282;28;20263;-89
2023/11/01 01:40:03;;;;;;;26.58;3.83;;;;;;;;;;5011673;28;20331;-89
2023/11/01 01:42:28;;;;;;;29.67;3.72;;;;;;;;;;5015980;28;20054;-89
2023/11/01 01:44:54;;;;;;;25.70;3.63;;;;;;;;;;5012210;28;20480;-89
2023/11/01 01:47:19;;;;;;;26.20;4.93;;;;;;;;;;5013293;28;20792;-90
2023/11/01 01:49:45;;;;;;;24.20;3.33;;;;;;;;;;5012910;28;20021;-88
2023/11/01 01:52:11;;;;;;;28.15;4.82;;;;;;;;;;5013163;28;20033;-89
2023/11/01 01:54:36;;;;;;;24.70;3.13;;;;;;;;;;5012893;28;20030;-89
2023/11/01 01:57:01;;;;;;;21.35;3.47;;;;;;;;;;5012484;28;20041;-89
2023/11/01 01:59:26;;;;;;;24.73;3.25;;;;;;;;;;5012198;28;20088;-89
2023/11/01 02:01:52;;;;;;;20.08;3.38;;;;;;;;;;5012909;28;20499;-89
2023/11/01 02:04:17;;;;;;;27.70;3.58;;;;;;;;;;5011473;28;20104;-90
2023/11/01 02:06:43;;;;;;;26.33;3.70;;;;;;;;;;5012658;28;20108;-89
2023/11/01 02:09:15;;;;;;;25.65;3.88;;;;;;;;;;5012779;28;20022;-90
2023/11/01 02:11:40;;;;;;;24.38;3.67;;;;;;;;;;5010771;28;20022;-90
2023/11/01 02:14:06;;;;;;;27.95;4.00;;;;;;;;;;5011499;28;20376;-90
2023/11/01 02:16:31;;;;;;;28.48;3.50;;;;;;;;;;5012621;28;20072;-90
2023/11/01 02:18:56;;;;;;;28.92;5.18;;;;;;;;;;5011488;28;20092;-90
2023/11/01 02:21:21;;;;;;;25.58;3.28;;;;;;;;;;5012298;28;20495;-90
2023/11/01 02:23:49;;;;;;;29.70;3.90;;;;;;;;;;5011343;28;20018;-89
2023/11/01 02:26:14;;;;;;;28.65;3.35;;;;;;;;;;5009825;28;20255;-89
2023/11/01 02:28:39;;;;;;;24.77;3.90;;;;;;;;;;5011054;28;20480;-90
2023/11/01 02:31:04;;;;;;;31.67;3.70;;;;;;;;;;5011430;28;20750;-90
2023/11/01 02:33:30;;;;;;;23.88;4.70;;;;;;;;;;5012375;28;20026;-90
2023/11/01 02:35:55;;;;;;;20.42;2.95;;;;;;;;;;5012445;28;20034;-89
2023/11/01 02:38:20;;;;;;;27.00;5.38;;;;;;;;;;5011929;28;20491;-90
2023/11/01 02:40:46;;;;;;;26.23;3.25;;;;;;;;;;5011655;28;20029;-90
2023/11/01 02:43:11;;;;;;;26.33;3.70;;;;;;;;;;5011265;28;20032;-89
2023/11/01 02:45:38;;;;;;;22.13;2.95;;;;;;;;;;5012492;28;20026;-89
2023/11/01 02:48:03;;;;;;;26.65;2.97;;;;;;;;;;5012245;28;20384;-90
2023/11/01 02:50:28;;;;;;;24.42;3.30;;;;;;;;;;5012120;28;20022;-91
2023/11/01 02:52:53;;;;;;;21.85;2.45;;;;;;;;;;5011788;28;20108;-89
2023/11/01 02:55:18;;;;;;;14.93;2.27;;;;;;;;;;5011132;28;20036;-90
2023/11/01 02:57:45;;;;;;;17.27;2.80;;;;;;;;;;5011411;28;20278;-90
2023/11/01 03:00:18;;;;;;;35.42;5.57;;;;;;;;;;5011855;28;20018;-90
2023/11/01 03:02:47;;;;;;;12.02;2.28;;;;;;;;;;5009717;28;20115;-89
2023/11/01 03:05:12;;;;;;;14.20;2.88;;;;;;;;;;5011952;28;20018;-91
2023/11/01 03:07:38;;;;;;;20.30;3.15;;;;;;;;;;5010986;28;20021;-90
2023/11/01 03:10:04;;;;;;;23.52;3.20;;;;;;;;;;5010448;28;20107;-90
2023/11/01 03:12:30;;;;;;;14.68;1.90;;;;;;;;;;5010015;28;20110;-91
2023/11/01 03:14:55;;;;;;;19.27;2.28;;;;;;;;;;5010678;28;20115;-91
2023/11/01 03:17:20;;;;;;;13.20;2.03;;;;;;;;;;5011673;28;20014;-90
2023/11/01 03:19:45;;;;;;;19.60;2.70;;;;;;;;;;5011844;28;20264;-92
2023/11/01 03:22:10;;;;;;;17.10;2.13;;;;;;;;;;5010627;28;20264;-89
2023/11/01 03:24:36;;;;;;;26.77;3.47;;;;;;;;;;5012080;28;20270;-89
2023/11/01 03:27:01;;;;;;;17.70;2.70;;;;;;;;;;5009725;28;20278;-90
2023/11/01 03:29:26;;;;;;;17.98;2.60;;;;;;;;;;5009843;28;20279;-88
2023/11/01 03:31:52;;;;;;;18.88;2.15;;;;;;;;;;5010899;28;20502;-94
2023/11/01 03:34:17;;;;;;;17.88;2.20;;;;;;;;;;5011318;28;20480;-90
2023/11/01 03:36:42;;;;;;;10.88;1.83;;;;;;;;;;5010445;28;20025;-90
2023/11/01 03:39:08;;;;;;;16.60;2.05;;;;;;;;;;5012113;28;20028;-90
2023/11/01 03:41:38;;;;;;;18.77;2.50;;;;;;;;;;5010365;28;20117;-89
2023/11/01 03:44:03;;;;;;;22.33;2.55;;;;;;;;;;5012001;28;20018;-91
2023/11/01 03:46:28;;;;;;;15.40;1.88;;;;;;;;;;5008698;28;20048;-92
2023/11/01 03:48:53;;;;;;;16.25;2.22;;;;;;;;;;5011512;28;20060;-90
2023/11/01 03:51:19;;;;;;;20.93;4.33;;;;;;;;;;5011650;28;20025;-90
2023/11/01 03:53:44;;;;;;;13.13;2.13;;;;;;;;;;5009782;28;20259;-90
2023/11/01 03:56:09;;;;;;;20.97;3.17;;;;;;;;;;5010542;28;20287;-91
2023/11/01 03:58:34;;;;;;;13.40;2.15;;;;;;;;;;5011789;28;20259;-92
2023/11/01 04:01:00;;;;;;;16.83;2.10;;;;;;;;;;5009885;28;20120;-92
2023/11/01 04:03:26;;;;;;;18.75;3.20;;;;;;;;;;5011577;28;20018;-89
2023/11/01 04:05:51;;;;;;;13.27;2.60;;;;;;;;;;5010727;28;20022;-93
2023/11/01 04:08:17;;;;;;;12.68;2.22;;;;;;;;;;5010087;28;20077;-91
2023/11/01 04:10:42;;;;;;;19.97;2.10;;;;;;;;;;5009890;28;20029;-92
2023/11/01 04:13:07;;;;;;;14.20;2.20;;;;;;;;;;5011455;28;20252;-90
2023/11/01 04:15:32;;;;;;;15.93;3.00;;;;;;;;;;5011450;28;20290;-90
2023/11/01 04:17:58;;;;;;;23.15;2.47;;;;;;;;;;5010237;28;20335;-92
2023/11/01 04:20:23;;;;;;;16.35;2.78;;;;;;;;;;5009445;28;20121;-92
2023/11/01 04:22:49;;;;;;;26.42;3.80;;;;;;;;;;5010834;28;20024;-92
2023/11/01 04:25:15;;;;;;;17.08;2.22;;;;;;;;;;5013255;28;20028;-92
2023/11/01 04:27:41;;;;;;;18.15;2.55;;;;;;;;;;5012771;28;20025;-92
2023/11/01 04:30:10;;;;;;;18.15;2.28;;;;;;;;;;5013512;28;20026;-92
2023/11/01 04:32:35;;;;;;;13.63;2.60;;;;;;;;;;5013377;28;20454;-92
2023/11/01 04:35:01;;;;;;;8.90;1.73;;;;;;;;;;5014173;28;20113;-90
2023/11/01 04:37:26;;;;;;;12.43;1.50;;;;;;;;;;5013333;28;20380;-92
2023/11/01 04:39:52;;;;;;;13.57;1.77;;;;;;;;;;5014670;28;20084;-91
2023/11/01 04:42:17;;;;;;;12.55;1.58;;;;;;;;;;5013523;28;20337;-92
2023/11/01 04:44:44;;;;;;;9.27;1.63;;;;;;;;;;5011246;28;20021;-92
2023/11/01 04:47:09;;;;;;;11.02;1.20;;;;;;;;;;5014140;28;20022;-92
2023/11/01 04:49:34;;;;;;;8.85;1.23;;;;;;;;;;5014133;28;20068;-91
2023/11/01 04:51:59;;;;;;;11.83;1.53;;;;;;;;;;5014525;28;20018;-91
2023/11/01 04:54:25;;;;;;;9.48;1.33;;;;;;;;;;5013879;28;20305;-91
2023/11/01 04:56:50;;;;;;;9.17;1.07;;;;;;;;;;5014223;28;20033;-90
2023/11/01 04:59:16;;;;;;;6.47;0.80;;;;;;;;;;5013549;28;20248;-91
2023/11/01 05:01:41;;;;;;;7.05;0.98;;;;;;;;;;5012687;28;20272;-91
2023/11/01 05:04:06;;;;;;;6.78;0.93;;;;;;;;;;5013605;28;20540;-91
2023/11/01 05:06:31;;;;;;;14.48;1.75;;;;;;;;;;5014077;28;20018;-91
2023/11/01 05:08:56;;;;;;;8.53;0.77;;;;;;;;;;5012752;28;20090;-90
2023/11/01 05:11:22;;;;;;;14.73;1.73;;;;;;;;;;5012663;28;20274;-91
2023/11/01 05:13:47;;;;;;;11.93;1.23;;;;;;;;;;5013951;28;20248;-91
2023/11/01 05:16:13;;;;;;;12.50;1.73;;;;;;;;;;5010480;28;20045;-90
2023/11/01 05:18:38;;;;;;;12.33;2.13;;;;;;;;;;5013531;28;20028;-90
2023/11/01 05:21:05;;;;;;;13.67;3.07;;;;;;;;;;5012384;28;20342;-91
2023/11/01 05:23:30;;;;;;;8.27;1.25;;;;;;;;;;5013741;28;20244;-90
2023/11/01 05:25:55;;;;;;;9.73;1.40;;;;;;;;;;5012189;28;20520;-90
2023/11/01 05:28:20;;;;;;;9.73;1.30;;;;;;;;;;5012588;28;20104;-90
2023/11/01 05:30:46;;;;;;;8.53;1.50;;;;;;;;;;5012497;28;20792;-90
2023/11/01 05:33:11;;;;;;;7.78;1.15;;;;;;;;;;5013688;28;20283;-90
2023/11/01 05:35:37;;;;;;;10.55;1.27;;;;;;;;;;5012570;28;20380;-90
2023/11/01 05:38:03;;;;;;;9.73;1.58;;;;;;;;;;5013488;28;20080;-91
2023/11/01 05:40:29;;;;;;;15.57;1.70;;;;;;;;;;5013288;28;20060;-90
2023/11/01 05:42:54;;;;;;;13.65;1.45;;;;;;;;;;5012388;28;20109;-90
2023/11/01 05:45:20;;;;;;;12.70;1.92;;;;;;;;;;5013529;28;20026;-91
2023/11/01 05:47:49;;;;;;;12.73;1.52;;;;;;;;;;5013337;28;20400;-90
2023/11/01 05:50:16;;;;;;;11.77;1.90;;;;;;;;;;5013084;28;20392;-90
2023/11/01 05:52:41;;;;;;;13.70;2.55;;;;;;;;;;5011636;28;20383;-90
2023/11/01 05:55:07;;;;;;;13.93;1.70;;;;;;;;;;5012672;28;20284;-91
2023/11/01 05:57:32;;;;;;;14.50;1.80;;;;;;;;;;5011482;28;20260;-89
2023/11/01 05:59:58;;;;;;;14.07;1.60;;;;;;;;;;5011533;28;20080;-90
2023/11/01 06:02:23;;;;;;;13.18;2.13;;;;;;;;;;5012041;28;20244;-90
2023/11/01 06:04:48;;;;;;;14.73;1.92;;;;;;;;;;5010841;28;20534;-90
2023/11/01 06:07:14;;;;;;;14.77;1.90;;;;;;;;;;5012106;28;20022;-90
2023/11/01 06:09:39;;;;;;;16.88;1.92;;;;;;;;;;5012093;28;20267;-90
2023/11/01 06:12:05;;;;;;;10.15;1.42;;;;;;;;;;5012031;28;20071;-90
2023/11/01 06:14:31;;;;;;;12.02;1.95;;;;;;;;;;5009581;28;20110;-90
2023/11/01 06:16:57;;;;;;;12.00;1.88;;;;;;;;;;5011975;28;20025;-90
2023/11/01 06:19:22;;;;;;;14.05;1.65;;;;;;;;;;5011723;28;20021;-90
2023/11/01 06:21:48;;;;;;;20.95;2.63;;;;;;;;;;5012164;28;20014;-90
2023/11/01 06:24:14;;;;;;;11.80;2.20;;;;;;;;;;5011819;28;20083;-90
2023/11/01 06:26:39;;;;;;;18.10;2.20;;;;;;;;;;5011929;28;20527;-90
2023/11/01 06:29:04;;;;;;;15.63;1.92;;;;;;;;;;5009639;28;20048;-90
2023/11/01 06:31:30;;;;;;;19.80;2.50;;;;;;;;;;5003641;28;20108;-90
2023/11/01 06:33:55;;;;;;;13.55;2.05;;;;;;;;;;5011390;28;20291;-90
2023/11/01 06:36:20;;;;;;;22.50;2.50;;;;;;;;;;5011691;28;20476;-91
2023/11/01 06:38:46;;;;;;;17.45;2.67;;;;;;;;;;5011538;28;20026;-90
2023/11/01 06:41:11;;;;;;;5.75;1.05;;;;;;;;;;5007505;28;20261;-90
2023/11/01 06:43:36;;;;;;;7.43;1.73;;;;;;;;;;5009719;28;20469;-90
2023/11/01 06:46:01;;;;;;;12.70;2.83;;;;;;;;;;5009449;28;20761;-91
2023/11/01 06:48:27;;;;;;;11.90;1.55;;;;;;;;;;5011408;28;20267;-90
2023/11/01 06:50:52;;;;;;;12.98;2.45;;;;;;;;;;5010988;28;20022;-91
2023/11/01 06:53:17;;;;;;;5.33;1.20;;;;;;;;;;5011032;28;20472;-90
2023/11/01 06:55:42;;;;;;;10.77;1.50;;;;;;;;;;4973319;28;1090527;-89
2023/11/01 06:58:07;;;;;;;10.57;1.50;;;;;;;;;;5011923;28;20271;-89
2023/11/01 07:00:33;;;;;;;11.68;1.40;;;;;;;;;;5009870;28;20358;-89
2023/11/01 07:02:59;;;;;;;10.77;1.88;;;;;;;;;;5011904;28;20022;-88
2023/11/01 07:05:24;;;;;;;11.43;1.38;;;;;;;;;;5010254;28;20100;-89
2023/11/01 07:07:49;;;;;;;11.20;1.37;;;;;;;;;;5012202;28;20022;-89
2023/11/01 07:10:14;;;;;;;10.52;1.23;;;;;;;;;;5012124;28;20263;-89
2023/11/01 07:12:40;;;;;;;13.43;1.50;;;;;;;;;;5012045;28;20129;-89
2023/11/01 07:15:08;;;;;;;10.20;1.30;;;;;;;;;;5011016;28;20465;-89
2023/11/01 07:17:33;;;;;;;7.97;1.17;;;;;;;;;;5010366;28;20068;-89
2023/11/01 07:19:58;;;;;;;6.95;1.58;;;;;;;;;;5011620;28;20097;-89
2023/11/01 07:22:23;;;;;;;12.82;1.73;;;;;;;;;;5012069;28;20025;-89
2023/11/01 07:24:49;;;;;;;12.02;1.92;;;;;;;;;;5010658;28;20029;-89
2023/11/01 07:27:14;;;;;;;9.38;1.20;;;;;;;;;;5011899;28;20033;-89
2023/11/01 07:29:39;;;;;;;11.23;1.55;;;;;;;;;;5010725;28;20029;-86
2023/11/01 07:32:05;;;;;;;13.23;1.77;;;;;;;;;;5011749;28;20089;-89
2023/11/01 07:34:30;;;;;;;12.25;1.48;;;;;;;;;;5011721;28;20282;-89
2023/11/01 07:36:55;;;;;;;9.52;1.08;;;;;;;;;;5011897;28;20101;-88
2023/11/01 07:39:21;;;;;;;11.88;1.33;;;;;;;;;;5012007;28;20013;-88
2023/11/01 07:41:46;;;;;;;9.38;1.63;;;;;;;;;;5011972;28;20029;-89
2023/11/01 07:44:12;;;;;;;13.47;2.00;;;;;;;;;;5008196;28;20007;-89
2023/11/01 07:46:37;;;;;;;14.68;2.90;;;;;;;;;;5011031;28;20629;-89
2023/11/01 07:49:02;;;;;;;14.35;2.33;;;;;;;;;;5011547;28;20018;-89
2023/11/01 07:51:28;;;;;;;12.82;1.80;;;;;;;;;;5011750;28;20034;-88
2023/11/01 07:53:53;;;;;;;19.58;2.72;;;;;;;;;;5011214;28;20021;-88
2023/11/01 07:56:19;;;;;;;15.95;3.25;;;;;;;;;;5011621;28;20034;-88
2023/11/01 07:58:45;;;;;;;7.53;1.30;;;;;;;;;;5014205;28;20100;-88
2023/11/01 08:01:11;;;;;;;9.57;1.90;;;;;;;;;;5014446;28;20029;-89
2023/11/01 08:03:37;;;;;;;12.30;1.70;;;;;;;;;;5015046;28;20117;-89
2023/11/01 08:06:02;;;;;;;11.73;1.92;;;;;;;;;;5013840;28;20029;-88
2023/11/01 08:08:28;;;;;;;15.65;2.17;;;;;;;;;;5013753;28;20021;-89
2023/11/01 08:10:53;;;;;;;13.40;3.30;;;;;;;;;;5015228;28;20044;-89
2023/11/01 08:13:18;;;;;;;18.47;2.90;;;;;;;;;;5014878;28;20036;-88
2023/11/01 08:15:43;;;;;;;8.95;1.73;;;;;;;;;;5013889;28;20287;-89
2023/11/01 08:18:10;;;;;;;13.32;3.58;;;;;;;;;;5014880;28;20101;-88
2023/11/01 08:20:35;;;;;;;14.60;2.03;;;;;;;;;;5015064;28;20101;-88
2023/11/01 08:23:01;;;;;;;14.80;1.85;;;;;;;;;;5014970;28;20496;-88
2023/11/01 08:25:26;;;;;;;18.30;2.57;;;;;;;;;;5015165;28;20109;-88
2023/11/01 08:27:52;;;;;;;22.50;2.55;;;;;;;;;;5012824;28;20299;-89
2023/11/01 08:30:17;;;;;;;16.35;3.25;;;;;;;;;;5014208;28;20530;-89
2023/11/01 08:32:43;;;;;;;24.27;3.30;;;;;;;;;;5014672;28;20468;-88
2023/11/01 08:35:08;;;;;;;20.98;2.67;;;;;;;;;;5014716;28;20120;-89
2023/11/01 08:37:34;;;;;;;16.45;2.70;;;;;;;;;;5014620;28;20072;-89
2023/11/01 08:39:59;;;;;;;13.50;1.90;;;;;;;;;;5014459;28;20037;-89
2023/11/01 08:42:25;;;;;;;20.52;3.65;;;;;;;;;;5013656;28;20026;-88
2023/11/01 08:44:50;;;;;;;15.02;2.13;;;;;;;;;;5012704;28;20109;-88
2023/11/01 08:47:34;;;;;;;11.50;1.80;;;;;;;;;;5014479;28;20013;-88
2023/11/01 08:50:00;;;;;;;10.15;1.52;;;;;;;;;;5014436;28;20252;-88
2023/11/01 08:52:25;;;;;;;12.77;2.45;;;;;;;;;;5014584;28;20360;-88
2023/11/01 08:54:50;;;;;;;20.30;3.47;;;;;;;;;;5013740;28;20034;-88
2023/11/01 08:57:15;;;;;;;14.80;1.77;;;;;;;;;;5014030;28;20026;-88
2023/11/01 08:59:42;;;;;;;11.77;1.85;;;;;;;;;;5012844;28;20270;-88
2023/11/01 09:02:07;;;;;;;8.55;1.13;;;;;;;;;;5014238;28;20018;-88
2023/11/01 09:04:32;;;;;;;5.17;1.57;;;;;;;;;;5013669;28;20503;-88
2023/11/01 09:06:57;;;;;;;10.73;1.77;;;;;;;;;;5014303;28;20752;-88
2023/11/01 09:09:22;;;;;;;10.80;1.67;;;;;;;;;;5014148;28;20272;-88
2023/11/01 09:11:47;;;;;;;14.60;2.57;;;;;;;;;;5013102;28;20290;-88
2023/11/01 09:14:13;;;;;;;7.90;1.63;;;;;;;;;;5013738;28;20331;-89
2023/11/01 09:16:38;;;;;;;9.40;1.70;;;;;;;;;;5013929;28;20267;-88
2023/11/01 09:19:03;;;;;;;13.13;1.93;;;;;;;;;;5013752;28;20021;-88
2023/11/01 09:21:28;;;;;;;10.37;1.93;;;;;;;;;;5014075;28;20665;-88
2023/11/01 09:23:53;;;;;;;25.00;3.70;;;;;;;;;;5013536;28;20745;-89
2023/11/01 09:26:19;;;;;;;17.10;2.38;;;;;;;;;;5011726;28;20271;-89
2023/11/01 09:28:44;;;;;;;15.77;1.90;;;;;;;;;;5012239;28;20022;-88
2023/11/01 09:31:09;;;;;;;14.30;2.47;;;;;;;;;;5012483;28;20022;-89
2023/11/01 09:33:35;;;;;;;17.60;2.13;;;;;;;;;;5012698;28;20022;-89
2023/11/01 09:36:00;;;;;;;18.17;3.00;;;;;;;;;;5010608;28;20034;-89
2023/11/01 09:38:25;;;;;;;14.43;3.03;;;;;;;;;;5027755;28;20025;-89
2023/11/01 09:40:51;;;;;;;17.90;3.07;;;;;;;;;;5032642;28;20029;-87
2023/11/01 09:43:18;;;;;;;22.40;2.33;;;;;;;;;;5013062;28;20275;-88
2023/11/01 09:45:44;;;;;;;17.27;3.00;;;;;;;;;;5013250;28;20108;-87
2023/11/01 09:48:09;;;;;;;23.13;3.25;;;;;;;;;;5013388;28;20101;-89
2023/11/01 09:50:37;;;;;;;13.75;2.25;;;;;;;;;;5010484;28;20026;-88
2023/11/01 09:53:02;;;;;;;17.80;3.38;;;;;;;;;;5012707;28;20053;-91
2023/11/01 09:55:28;;;;;;;22.88;2.88;;;;;;;;;;5011519;28;20119;-89
2023/11/01 09:57:53;;;;;;;18.38;3.40;;;;;;;;;;5012482;28;20400;-89
2023/11/01 10:00:19;;;;;;;21.98;3.28;;;;;;;;;;5012837;28;20034;-88
2023/11/01 10:02:45;;;;;;;20.80;4.22;;;;;;;;;;5012760;28;20072;-88
2023/11/01 10:05:10;;;;;;;15.70;3.05;;;;;;;;;;5011689;28;20409;-87
2023/11/01 10:07:35;;;;;;;15.37;3.00;;;;;;;;;;5011101;28;20052;-88
2023/11/01 10:10:02;;;;;;;16.07;2.83;;;;;;;;;;5012442;28;20355;-87
2023/11/01 10:12:27;;;;;;;18.92;2.35;;;;;;;;;;5012895;28;20248;-88
2023/11/01 10:14:53;;;;;;;22.75;3.22;;;;;;;;;;5011955;28;20030;-87
2023/11/01 10:17:18;;;;;;;17.08;3.42;;;;;;;;;;5012628;28;20397;-88
2023/11/01 10:19:43;;;;;;;22.17;2.65;;;;;;;;;;5010553;28;20014;-88
2023/11/01 10:22:09;;;;;;;9.60;1.98;;;;;;;;;;5009490;28;20030;-88
2023/11/01 10:24:34;;;;;;;16.52;2.13;;;;;;;;;;5010441;28;20423;-89
2023/11/01 10:27:00;;;;;;;16.70;2.08;;;;;;;;;;5011005;28;20076;-90
2023/11/01 10:29:27;;;;;;;20.98;3.35;;;;;;;;;;5011725;28;20021;-89
2023/11/01 10:31:54;;;;;;;13.70;2.95;;;;;;;;;;5012208;28;20064;-88
2023/11/01 10:34:26;;;;;;;11.32;2.28;;;;;;;;;;5011840;28;20061;-87
2023/11/01 10:36:52;;;;;;;14.85;3.08;;;;;;;;;;5008409;28;20037;-88
2023/11/01 10:39:19;;;;;;;15.43;3.03;;;;;;;;;;5002787;28;20413;-87
2023/11/01 10:41:49;;;;;;;11.50;1.83;;;;;;;;;;5012080;28;20022;-87
2023/11/01 10:44:14;;;;;;;13.32;2.83;;;;;;;;;;5010912;28;20484;-88
2023/11/01 10:46:40;;;;;;;11.73;1.90;;;;;;;;;;5011184;28;20109;-87
2023/11/01 10:49:06;;;;;;;16.58;2.78;;;;;;;;;;5012103;28;20148;-88
2023/11/01 10:51:32;;;;;;;12.95;2.90;;;;;;;;;;5011336;28;20025;-87
2023/11/01 10:53:59;;;;;;;21.92;2.10;;;;;;;;;;5010475;28;20017;-88
2023/11/01 10:56:26;;;;;;;14.88;2.40;;;;;;;;;;5006934;28;20026;-89
2023/11/01 10:58:54;;;;;;;11.63;3.10;;;;;;;;;;5011485;28;20022;-89
2023/11/01 11:01:24;;;;;;;18.92;2.42;;;;;;;;;;5011485;28;20026;-89
2023/11/01 11:03:49;;;;;;;11.05;2.70;;;;;;;;;;5008341;28;20084;-90
2023/11/01 11:06:16;;;;;;;10.90;1.10;;;;;;;;;;5000212;28;20022;-89
2023/11/01 11:08:41;;;;;;;12.07;1.73;;;;;;;;;;5011819;28;20251;-88
2023/11/01 11:11:19;;;;;;;7.95;1.58;;;;;;;;;;5012011;28;20028;-90
2023/11/01 11:13:48;;;;;;;7.63;1.35;;;;;;;;;;5011422;28;20022;-89
2023/11/01 11:16:18;;;;;;;5.43;1.20;;;;;;;;;;5011767;28;20068;-90
2023/11/01 11:18:44;;;;;;;7.05;1.55;;;;;;;;;;5010890;28;20056;-88
2023/11/01 11:21:29;;;;;;;10.32;1.50;;;;;;;;;;5011129;28;20030;-90
2023/11/01 11:23:57;;;;;;;8.18;1.38;;;;;;;;;;5008950;28;20025;-89
2023/11/01 11:26:37;;;;;;;15.55;2.28;;;;;;;;;;5007405;28;20023;-89
2023/11/01 11:29:04;;;;;;;7.53;2.03;;;;;;;;;;4992209;28;20029;-89
2023/11/01 11:31:50;;;;;;;10.18;1.27;;;;;;;;;;4991763;28;20110;-89
2023/11/01 11:34:15;;;;;;;11.48;2.55;;;;;;;;;;4994596;28;20026;-89
2023/11/01 11:37:00;;;;;;;17.02;1.85;;;;;;;;;;4996329;28;20030;-89
2023/11/01 11:39:46;;;;;;;17.90;2.67;;;;;;;;;;5005781;28;20033;-90
2023/11/01 11:42:31;;;;;;;30.90;2.63;;;;;;;;;;5009246;28;20125;-90
2023/11/01 11:45:00;;;;;;;14.38;2.85;;;;;;;;;;5015225;28;20362;-87
2023/11/01 11:47:28;;;;;;;10.32;2.10;;;;;;;;;;5015512;28;20079;-87
2023/11/01 11:50:04;;;;;;;11.55;1.95;;;;;;;;;;5014452;28;20018;-88
2023/11/01 11:52:29;;;;;;;11.55;2.03;;;;;;;;;;5009360;28;20026;-89
2023/11/01 11:54:55;;;;;;;14.77;2.23;;;;;;;;;;5010767;28;20033;-89
2023/11/01 11:57:25;;;;;;;17.60;2.97;;;;;;;;;;5014364;28;20267;-89
2023/11/01 11:59:51;;;;;;;15.52;2.45;;;;;;;;;;5013271;28;20729;-89
2023/11/01 12:02:16;;;;;;;22.42;3.92;;;;;;;;;;5012843;28;20057;-89
2023/11/01 12:04:45;;;;;;;21.52;2.30;;;;;;;;;;5013133;28;20022;-88
2023/11/01 12:07:18;;;;;;;18.30;2.75;;;;;;;;;;5012432;28;20025;-89
2023/11/01 12:09:50;;;;;;;20.63;3.13;;;;;;;;;;5013590;28;20472;-88
2023/11/01 12:12:15;;;;;;;13.73;2.95;;;;;;;;;;5011277;28;20014;-89
2023/11/01 12:14:41;;;;;;;21.48;4.47;;;;;;;;;;5013166;28;20388;-89
2023/11/01 12:17:06;;;;;;;14.77;2.55;;;;;;;;;;5013519;28;20025;-87
2023/11/01 12:19:32;;;;;;;19.08;2.95;;;;;;;;;;5012293;28;20104;-90
2023/11/01 12:22:00;;;;;;;28.65;4.28;;;;;;;;;;5013704;28;20032;-90
2023/11/01 12:24:38;;;;;;;16.02;2.92;;;;;;;;;;5011977;28;20029;-89
2023/11/01 12:27:06;;;;;;;27.00;4.78;;;;;;;;;;5014661;28;20499;-89
2023/11/01 12:29:31;;;;;;;21.92;3.63;;;;;;;;;;5014488;28;20021;-88
2023/11/01 12:32:03;;;;;;;22.08;3.42;;;;;;;;;;5014305;28;20079;-87
2023/11/01 12:34:29;;;;;;;17.95;3.70;;;;;;;;;;5012459;28;20026;-86
2023/11/01 12:36:59;;;;;;;19.23;3.10;;;;;;;;;;5012855;28;20044;-87
2023/11/01 12:39:24;;;;;;;24.23;3.72;;;;;;;;;;5011657;28;20365;-87
2023/11/01 12:41:49;;;;;;;21.03;3.83;;;;;;;;;;5012975;28;20117;-86
2023/11/01 12:44:14;;;;;;;23.00;3.67;;;;;;;;;;5012811;28;20279;-87
2023/11/01 12:46:39;;;;;;;25.70;5.00;;;;;;;;;;5014385;28;20329;-89
2023/11/01 12:49:05;;;;;;;19.20;3.55;;;;;;;;;;5013757;28;20259;-89
2023/11/01 12:51:30;;;;;;;28.58;4.15;;;;;;;;;;5014137;28;20043;-89
2023/11/01 12:53:58;;;;;;;26.03;3.73;;;;;;;;;;5013628;28;20026;-89
2023/11/01 12:56:24;;;;;;;16.58;4.22;;;;;;;;;;5013915;28;20282;-89
2023/11/01 12:58:49;;;;;;;26.85;3.92;;;;;;;;;;5010417;28;20052;-89
2023/11/01 13:01:17;;;;;;;22.00;4.10;;;;;;;;;;5010448;28;20352;-90
2023/11/01 13:03:42;;;;;;;26.13;3.55;;;;;;;;;;5010697;28;20041;-87
2023/11/01 13:06:07;;;;;;;23.50;4.20;;;;;;;;;;5014136;28;20411;-87
2023/11/01 13:08:33;;;;;;;23.77;3.88;;;;;;;;;;5014010;28;20608;-91
2023/11/01 13:10:59;;;;;;;27.00;3.80;;;;;;;;;;5013728;28;20832;-89
2023/11/01 13:13:24;;;;;;;29.63;4.93;;;;;;;;;;5010167;28;20275;-91
2023/11/01 13:15:50;;;;;;;21.55;3.58;;;;;;;;;;5013375;28;20076;-91
2023/11/01 13:18:16;;;;;;;26.88;4.45;;;;;;;;;;5014696;28;20029;-89
2023/11/01 13:20:42;;;;;;;28.83;3.83;;;;;;;;;;5008420;28;20026;-88
2023/11/01 13:23:07;;;;;;;31.65;4.70;;;;;;;;;;5011614;28;20263;-88
2023/11/01 13:25:32;;;;;;;18.53;3.20;;;;;;;;;;5013882;28;20028;-88
2023/11/01 13:27:58;;;;;;;24.33;3.40;;;;;;;;;;5013198;28;20259;-88
2023/11/01 13:30:24;;;;;;;22.60;4.40;;;;;;;;;;5013397;28;20274;-88
2023/11/01 13:32:49;;;;;;;20.48;4.35;;;;;;;;;;5011662;28;20754;-87
2023/11/01 13:35:14;;;;;;;23.42;3.50;;;;;;;;;;5012728;28;20032;-87
2023/11/01 13:37:40;;;;;;;17.67;2.67;;;;;;;;;;5013117;28;20064;-87
2023/11/01 13:40:05;;;;;;;24.70;3.73;;;;;;;;;;5013439;28;20014;-87
2023/11/01 13:42:30;;;;;;;20.05;3.42;;;;;;;;;;5013561;28;20251;-87
2023/11/01 13:44:56;;;;;;;24.33;3.50;;;;;;;;;;5010865;28;20049;-87
2023/11/01 13:47:21;;;;;;;17.93;4.10;;;;;;;;;;5012210;28;20781;-87
2023/11/01 13:49:46;;;;;;;20.65;2.53;;;;;;;;;;5013201;28;20362;-87
2023/11/01 13:52:11;;;;;;;17.57;2.80;;;;;;;;;;5013547;28;20376;-87
2023/11/01 13:54:36;;;;;;;19.10;3.85;;;;;;;;;;5009572;28;20777;-87
2023/11/01 13:57:02;;;;;;;22.63;3.20;;;;;;;;;;5011216;28;20047;-87
2023/11/01 13:59:28;;;;;;;17.48;4.35;;;;;;;;;;5011980;28;20307;-87
2023/11/01 14:01:55;;;;;;;20.20;3.43;;;;;;;;;;5012079;28;20060;-87
2023/11/01 14:04:21;;;;;;;24.40;2.85;;;;;;;;;;5010240;28;20694;-88
2023/11/01 14:06:46;;;;;;;18.88;3.25;;;;;;;;;;5010705;28;20050;-88
2023/11/01 14:09:13;;;;;;;15.50;3.37;;;;;;;;;;5013061;28;20018;-87
2023/11/01 14:11:39;;;;;;;19.73;3.83;;;;;;;;;;5012890;28;20247;-87
2023/11/01 14:14:05;;;;;;;27.15;4.40;;;;;;;;;;4998535;28;20028;-88
2023/11/01 14:16:31;;;;;;;19.05;3.78;;;;;;;;;;5003750;28;20037;-88
2023/11/01 14:18:56;;;;;;;18.35;3.53;;;;;;;;;;5001329;28;20014;-88
2023/11/01 14:21:25;;;;;;;17.40;3.30;;;;;;;;;;5012840;28;20486;-88
2023/11/01 14:23:51;;;;;;;18.08;3.60;;;;;;;;;;5012536;28;20579;-90